Time;durP1;ratioP1;P1;durP2;ratioP2;P2;SDS_P1;SDS_P2;PMS_P1;PMS_P2;Temp;Humidity;BMP_temperature;BMP_pressure;BME280_temperature;BME280_humidity;BME280_pressure;Samples;Min_cycle;Max_cycle;Signal;HPM_P1;HPM_P2
2021/10/09 00:01:10;;;;;;;30.73;20.30;;;;;;;11.06;70.82;97505.91;5071678;28;20439;-64
2021/10/09 00:03:36;;;;;;;28.50;20.30;;;;;;;11.05;70.95;97497.19;5070513;28;20228;-64
2021/10/09 00:06:02;;;;;;;31.53;21.93;;;;;;;11.03;70.93;97503.56;5071652;28;20178;-64
2021/10/09 00:08:27;;;;;;;34.00;20.57;;;;;;;11.04;70.91;97494.72;5069579;28;20185;-64
2021/10/09 00:10:53;;;;;;;29.40;20.50;;;;;;;10.99;70.53;97502.22;5071633;28;20194;-65
2021/10/09 00:13:18;;;;;;;28.13;18.73;;;;;;;10.97;70.60;97509.38;5071927;28;20201;-65
2021/10/09 00:15:44;;;;;;;34.23;20.63;;;;;;;10.93;70.58;97506.25;5073489;28;20185;-64
2021/10/09 00:18:10;;;;;;;31.83;20.80;;;;;;;10.90;70.55;97509.16;5065781;28;20561;-65
2021/10/09 00:20:35;;;;;;;27.97;20.30;;;;;;;10.87;70.50;97510.28;5069033;28;20202;-64
2021/10/09 00:23:01;;;;;;;30.20;19.57;;;;;;;10.71;70.86;97510.13;5063989;28;20210;-65
2021/10/09 00:25:26;;;;;;;31.10;20.40;;;;;;;10.75;70.82;97514.06;5072627;28;20182;-65
2021/10/09 00:27:52;;;;;;;33.33;20.17;;;;;;;10.65;71.66;97506.25;5071185;28;20269;-65
2021/10/09 00:30:18;;;;;;;38.17;21.03;;;;;;;10.72;71.21;97506.50;5070445;28;20641;-64
2021/10/09 00:32:44;;;;;;;32.57;21.07;;;;;;;10.72;71.28;97506.50;5071519;28;20564;-65
2021/10/09 00:35:09;;;;;;;30.07;20.73;;;;;;;10.68;71.23;97510.41;5071533;28;20205;-65
2021/10/09 00:37:35;;;;;;;36.00;21.73;;;;;;;10.63;71.62;97515.22;5071140;28;20198;-66
2021/10/09 00:40:01;;;;;;;32.73;21.17;;;;;;;10.74;71.31;97509.78;5063306;28;20213;-66
2021/10/09 00:42:26;;;;;;;36.83;22.33;;;;;;;10.43;72.29;97505.66;5064681;28;20185;-65
2021/10/09 00:44:52;;;;;;;31.90;20.00;;;;;;;10.63;71.78;97496.88;5060853;28;20500;-65
2021/10/09 00:47:22;;;;;;;31.00;20.60;;;;;;;10.71;71.24;97505.69;5071347;28;20185;-67
2021/10/09 00:49:47;;;;;;;31.40;19.33;;;;;;;10.75;71.07;97506.22;5069643;28;20256;-64
2021/10/09 00:52:13;;;;;;;36.20;21.57;;;;;;;10.71;70.80;97503.06;5071141;28;20437;-64
2021/10/09 00:54:43;;;;;;;30.40;20.10;;;;;;;10.73;70.35;97505.53;5070026;28;20640;-65
2021/10/09 00:57:10;;;;;;;33.83;20.60;;;;;;;10.68;70.41;97498.09;5071307;28;20214;-67
2021/10/09 00:59:36;;;;;;;27.90;20.07;;;;;;;10.66;70.30;97497.41;5071258;28;20804;-65
2021/10/09 01:02:03;;;;;;;30.63;19.87;;;;;;;10.63;70.46;97507.38;5071107;28;20412;-64
2021/10/09 01:04:29;;;;;;;31.33;20.07;;;;;;;10.55;70.42;97501.06;5071096;28;20473;-66
2021/10/09 01:06:56;;;;;;;30.07;20.33;;;;;;;10.56;70.57;97494.03;5071374;28;20571;-65
2021/10/09 01:09:21;;;;;;;30.90;20.13;;;;;;;10.56;70.53;97502.72;5072158;28;20439;-66
2021/10/09 01:11:47;;;;;;;28.73;19.10;;;;;;;10.54;70.38;97494.19;5071651;28;20769;-66
2021/10/09 01:14:12;;;;;;;36.93;20.40;;;;;;;10.50;70.71;97492.81;5071525;28;20239;-64
2021/10/09 01:16:38;;;;;;;26.07;18.80;;;;;;;10.54;70.39;97488.94;5064539;28;20181;-67
2021/10/09 01:19:06;;;;;;;31.23;20.60;;;;;;;10.46;70.60;97496.69;5068653;28;20184;-67
2021/10/09 01:21:41;;;;;;;31.93;20.40;;;;;;;10.41;70.76;97484.00;5070989;28;20605;-64
2021/10/09 01:24:07;;;;;;;38.00;21.10;;;;;;;10.46;70.57;97486.19;5073069;28;20421;-65
2021/10/09 01:26:32;;;;;;;31.60;20.60;;;;;;;10.23;71.57;97490.97;5074847;28;20420;-66
2021/10/09 01:28:58;;;;;;;30.67;18.80;;;;;;;10.38;70.72;97483.47;5074518;28;20413;-66
2021/10/09 01:31:24;;;;;;;34.50;20.03;;;;;;;10.37;70.31;97481.78;5074877;28;20175;-66
2021/10/09 01:33:49;;;;;;;31.53;20.60;;;;;;;10.35;70.41;97483.72;5073509;28;20177;-65
2021/10/09 01:36:15;;;;;;;28.70;18.90;;;;;;;10.29;70.09;97478.13;5075160;28;20198;-65
2021/10/09 01:38:41;;;;;;;29.90;19.63;;;;;;;10.29;70.25;97485.13;5074725;28;20291;-66
2021/10/09 01:41:07;;;;;;;30.40;19.53;;;;;;;10.25;70.00;97479.34;5072843;28;20223;-66
2021/10/09 01:43:33;;;;;;;33.77;20.03;;;;;;;10.23;70.31;97477.84;5061981;28;20193;-67
2021/10/09 01:45:58;;;;;;;40.33;20.03;;;;;;;10.20;70.24;97486.84;5065830;28;20425;-67
2021/10/09 01:48:35;;;;;;;30.23;20.87;;;;;;;10.17;70.33;97484.50;5073815;28;20421;-66
2021/10/09 01:51:03;;;;;;;36.90;20.80;;;;;;;10.14;70.26;97482.16;5072585;28;20202;-66
2021/10/09 01:53:29;;;;;;;31.17;20.83;;;;;;;10.09;70.84;97484.38;5068637;28;20421;-66
2021/10/09 01:55:55;;;;;;;31.03;21.37;;;;;;;10.09;70.47;97485.22;5070206;28;20428;-65
2021/10/09 01:58:21;;;;;;;32.23;20.50;;;;;;;10.08;70.68;97483.56;5072301;28;20281;-65
2021/10/09 02:00:46;;;;;;;28.40;19.83;;;;;;;10.12;70.74;97489.31;5074118;28;20793;-68
2021/10/09 02:03:12;;;;;;;26.77;18.70;;;;;;;10.10;70.72;97480.78;5074103;28;20178;-65
2021/10/09 02:05:38;;;;;;;31.77;20.37;;;;;;;10.10;70.32;97489.47;5074118;28;20175;-65
2021/10/09 02:08:04;;;;;;;30.33;19.93;;;;;;;10.08;70.43;97486.16;5073472;28;20665;-65
2021/10/09 02:10:30;;;;;;;32.70;20.70;;;;;;;10.04;70.41;97491.84;5073705;28;20190;-67
2021/10/09 02:12:58;;;;;;;32.60;20.07;;;;;;;9.99;70.61;97485.22;5073602;28;20417;-65
2021/10/09 02:15:31;;;;;;;33.93;20.70;;;;;;;9.95;70.30;97483.88;5073565;28;20419;-65
2021/10/09 02:26:09;;;;;;;31.37;20.50;;;;;;;9.85;70.85;97475.19;5073497;28;20436;-66
2021/10/09 02:28:35;;;;;;;30.07;20.63;;;;;;;9.78;71.01;97476.72;5072993;28;20915;-65
2021/10/09 02:31:01;;;;;;;31.17;20.07;;;;;;;9.81;70.65;97481.69;5071724;28;20206;-66
2021/10/09 02:33:26;;;;;;;30.97;20.40;;;;;;;9.79;71.00;97473.16;5073264;28;20246;-65
2021/10/09 02:35:52;;;;;;;28.27;18.83;;;;;;;9.68;71.13;97476.75;5064808;28;20198;-65
2021/10/09 02:38:17;;;;;;;28.40;20.70;;;;;;;9.70;71.01;97469.59;5072561;28;20553;-66
2021/10/09 02:40:44;;;;;;;32.63;19.07;;;;;;;9.75;70.81;97472.63;5072027;28;20204;-66
2021/10/09 02:43:10;;;;;;;28.87;20.80;;;;;;;9.81;70.17;97468.59;5073284;28;20182;-66
2021/10/09 02:45:36;;;;;;;30.33;20.30;;;;;;;9.57;71.41;97464.66;5062790;28;20788;-65
2021/10/09 02:48:04;;;;;;;33.80;19.87;;;;;;;9.67;70.95;97460.22;5072627;28;20417;-66
2021/10/09 02:50:29;;;;;;;28.40;18.73;;;;;;;9.72;70.63;97461.56;5073789;28;20219;-66
2021/10/09 02:52:56;;;;;;;33.73;19.80;;;;;;;9.69;70.56;97465.31;5078994;28;20420;-66
2021/10/09 02:55:21;;;;;;;27.83;19.70;;;;;;;9.70;70.33;97468.78;5083181;28;20202;-65
2021/10/09 02:57:47;;;;;;;27.90;19.50;;;;;;;9.65;70.37;97467.38;5073559;28;20442;-66
2021/10/09 03:00:14;;;;;;;33.73;19.43;;;;;;;9.61;70.80;97470.44;5056873;28;20199;-65
2021/10/09 03:02:39;;;;;;;36.67;19.60;;;;;;;9.63;70.49;97468.50;5069065;28;20931;-65
2021/10/09 03:05:06;;;;;;;32.57;20.20;;;;;;;9.59;70.70;97461.88;5073375;28;20474;-66
2021/10/09 03:07:31;;;;;;;28.90;19.47;;;;;;;9.59;70.57;97461.88;5062697;28;20258;-65
2021/10/09 03:09:57;;;;;;;31.50;19.47;;;;;;;9.57;70.46;97464.66;5043372;28;20537;-64
2021/10/09 03:12:23;;;;;;;28.27;19.37;;;;;;;9.56;70.14;97460.38;5058387;28;20176;-65
2021/10/09 03:14:49;;;;;;;31.77;19.03;;;;;;;9.56;70.64;97468.22;5052423;28;20183;-66
2021/10/09 03:17:15;;;;;;;31.00;20.40;;;;;;;9.53;70.39;97464.09;5060378;28;20535;-65
2021/10/09 03:19:40;;;;;;;28.80;19.43;;;;;;;9.52;70.36;97461.63;5061243;28;20218;-65
2021/10/09 03:22:06;;;;;;;32.50;20.07;;;;;;;9.53;70.21;97463.28;5051563;28;20254;-65
2021/10/09 03:24:32;;;;;;;29.27;20.50;;;;;;;9.49;70.55;97462.72;5052778;28;20615;-65
2021/10/09 03:26:58;;;;;;;28.33;20.10;;;;;;;9.46;70.54;97462.16;5052865;28;20429;-65
2021/10/09 03:29:23;;;;;;;31.67;21.33;;;;;;;9.42;70.44;97466.03;5052597;28;20201;-66
2021/10/09 03:31:49;;;;;;;33.57;19.70;;;;;;;9.43;70.82;97457.22;5061492;28;20184;-67
2021/10/09 03:34:15;;;;;;;32.27;22.13;;;;;;;9.39;70.41;97467.13;5056470;28;20258;-66
2021/10/09 03:36:40;;;;;;;32.87;22.50;;;;;;;9.40;70.99;97462.72;5067149;28;20183;-68
2021/10/09 03:39:12;;;;;;;29.97;19.73;;;;;;;9.39;71.06;97461.88;5056285;28;20200;-66
2021/10/09 03:41:41;;;;;;;35.37;22.53;;;;;;;9.38;71.13;97461.06;5071989;28;20552;-67
2021/10/09 03:44:07;;;;;;;30.20;20.43;;;;;;;9.38;70.67;97466.31;5058401;28;20422;-67
2021/10/09 03:46:40;;;;;;;32.50;21.60;;;;;;;9.33;70.94;97465.88;5062605;28;20478;-65
2021/10/09 03:54:18;;;;;;;36.17;22.90;;;;;;;9.27;71.15;97463.00;5064956;28;20916;-65
2021/10/09 03:56:44;;;;;;;31.00;22.40;;;;;;;9.19;71.22;97468.94;5052802;28;20487;-66
2021/10/09 03:59:10;;;;;;;38.93;22.40;;;;;;;9.25;71.41;97464.94;5044302;28;20231;-66
2021/10/09 04:01:35;;;;;;;34.83;21.73;;;;;;;9.27;71.86;97463.84;5055027;28;20187;-67
2021/10/09 04:04:01;;;;;;;30.70;21.37;;;;;;;9.31;71.70;97462.59;5071355;28;20179;-65
2021/10/09 04:06:27;;;;;;;36.27;21.90;;;;;;;9.29;71.16;97471.53;5082839;28;20277;-66
2021/10/09 04:08:53;;;;;;;35.60;22.83;;;;;;;9.34;71.09;97475.38;5047582;28;20654;-66
2021/10/09 04:11:19;;;;;;;33.47;22.17;;;;;;;9.34;71.45;97474.56;5033962;28;20186;-66
2021/10/09 04:13:44;;;;;;;27.73;19.90;;;;;;;9.29;71.41;97468.91;5051424;28;20931;-65
2021/10/09 04:16:10;;;;;;;37.67;22.50;;;;;;;9.31;70.99;97469.59;5060012;28;20720;-67
2021/10/09 04:18:35;;;;;;;29.73;20.40;;;;;;;9.28;71.10;97470.72;5051247;28;20195;-67
2021/10/09 04:21:01;;;;;;;35.30;21.40;;;;;;;9.25;70.53;97475.41;5051290;28;20209;-67
2021/10/09 04:23:27;;;;;;;30.23;20.60;;;;;;;9.23;71.25;97472.91;5058251;28;20171;-67
2021/10/09 04:25:52;;;;;;;28.30;19.70;;;;;;;9.18;71.18;97473.31;5051349;28;20249;-67
2021/10/09 04:28:18;;;;;;;30.67;19.60;;;;;;;9.18;71.00;97470.72;5052575;28;20259;-67
2021/10/09 04:30:44;;;;;;;34.30;19.90;;;;;;;9.21;71.77;97474.81;5052892;28;20249;-66
2021/10/09 04:33:09;;;;;;;26.57;18.80;;;;;;;9.25;71.25;97478.84;5062250;28;20170;-66
2021/10/09 04:35:35;;;;;;;32.80;20.37;;;;;;;9.24;71.43;97474.56;5050375;28;20688;-66
2021/10/09 04:38:08;;;;;;;33.03;20.67;;;;;;;9.22;71.77;97476.47;5047691;28;20206;-66
2021/10/09 04:40:34;;;;;;;30.03;19.40;;;;;;;9.35;71.03;97478.84;5045772;28;20601;-66
2021/10/09 04:42:59;;;;;;;28.27;19.47;;;;;;;9.31;70.74;97478.31;5059012;28;20783;-66
2021/10/09 04:45:25;;;;;;;31.23;20.70;;;;;;;9.28;70.94;97477.72;5051210;28;20426;-65
2021/10/09 04:47:51;;;;;;;31.70;19.73;;;;;;;9.26;71.24;97475.25;5066061;28;20194;-65
2021/10/09 04:50:17;;;;;;;25.20;17.80;;;;;;;9.27;70.56;97482.13;5046647;28;20430;-65
2021/10/09 04:52:42;;;;;;;27.90;19.60;;;;;;;9.05;71.41;97480.59;5051082;28;20179;-66
2021/10/09 04:55:08;;;;;;;29.27;19.23;;;;;;;8.97;72.20;97470.81;5057504;28;20186;-66
2021/10/09 04:57:34;;;;;;;34.83;21.17;;;;;;;9.10;71.81;97477.56;5060211;28;20194;-65
2021/10/09 04:59:59;;;;;;;28.60;19.53;;;;;;;9.19;71.03;97482.81;5056034;28;20517;-65
2021/10/09 05:02:25;;;;;;;28.07;19.97;;;;;;;9.22;71.07;97481.72;5061827;28;20200;-66
2021/10/09 05:04:51;;;;;;;26.10;17.70;;;;;;;9.20;70.84;97481.88;5063004;28;20539;-66
2021/10/09 05:07:16;;;;;;;29.00;19.03;;;;;;;9.08;70.95;97480.34;5054389;28;20212;-64
2021/10/09 05:09:42;;;;;;;29.50;18.70;;;;;;;9.17;71.08;97476.09;5050975;28;20263;-67
2021/10/09 05:12:09;;;;;;;31.73;19.33;;;;;;;9.15;71.01;97470.97;5062427;28;21687;-66
2021/10/09 05:14:35;;;;;;;28.00;19.20;;;;;;;9.17;71.01;97473.47;5053509;28;20418;-66
2021/10/09 05:17:00;;;;;;;36.70;18.83;;;;;;;9.16;70.81;97477.03;5062823;28;20440;-66
2021/10/09 05:19:26;;;;;;;28.70;18.23;;;;;;;9.18;70.76;97475.94;5053931;28;20304;-65
2021/10/09 05:21:52;;;;;;;28.07;19.10;;;;;;;9.16;70.73;97471.81;5046090;28;20236;-66
2021/10/09 05:24:17;;;;;;;26.60;19.27;;;;;;;9.18;71.16;97472.50;5074833;28;20171;-65
2021/10/09 05:26:43;;;;;;;29.90;18.67;;;;;;;9.17;70.90;97474.28;5074133;28;20175;-66
2021/10/09 05:29:15;;;;;;;25.23;19.00;;;;;;;9.16;71.01;97474.44;5074362;28;20188;-65
2021/10/09 05:31:40;;;;;;;34.70;18.90;;;;;;;9.14;70.50;97478.97;5074152;28;20542;-66
2021/10/09 05:34:06;;;;;;;32.10;18.67;;;;;;;9.11;71.09;97481.84;5074395;28;20416;-66
2021/10/09 05:36:32;;;;;;;31.93;19.50;;;;;;;9.08;71.00;97490.78;5074485;28;20186;-66
2021/10/09 05:38:57;;;;;;;28.10;19.13;;;;;;;9.19;70.95;97492.47;5074081;28;20194;-66
2021/10/09 05:41:23;;;;;;;61.00;38.70;;;;;;;9.07;70.68;97489.94;5074266;28;20175;-66
2021/10/09 05:43:49;;;;;;;55.97;34.30;;;;;;;9.18;70.50;97488.19;5074213;28;20186;-67
2021/10/09 05:46:16;;;;;;;43.53;27.70;;;;;;;9.14;70.70;97495.47;5074404;28;20170;-66
2021/10/09 05:48:42;;;;;;;39.40;27.40;;;;;;;9.15;70.50;97497.13;5073951;28;20162;-67
2021/10/09 05:56:05;;;;;;;52.30;32.87;;;;;;;9.22;70.59;97502.63;5074341;28;20420;-67
2021/10/09 05:58:43;;;;;;;37.27;24.27;;;;;;;9.21;71.76;97498.38;5074146;28;20229;-66
2021/10/09 06:50:49;;;;;;;31.33;20.40;;;;;;;10.24;69.79;97537.94;5062242;28;20514;-66
2021/10/09 07:01:30;;;;;;;30.17;20.93;;;;;;;10.22;69.58;97541.69;5067570;28;21125;-66
2021/10/09 07:03:56;;;;;;;28.37;19.13;;;;;;;9.95;70.35;97546.72;5072758;28;20413;-67
2021/10/09 07:06:22;;;;;;;32.33;20.90;;;;;;;10.51;69.21;97543.44;5074175;28;20205;-67
2021/10/09 07:08:47;;;;;;;30.13;20.80;;;;;;;10.58;68.61;97547.97;5073022;28;20171;-65
2021/10/09 07:11:15;;;;;;;34.97;21.23;;;;;;;10.55;68.64;97550.88;5072871;28;20496;-67
2021/10/09 07:13:41;;;;;;;29.07;19.77;;;;;;;10.42;69.44;97552.97;5073170;28;20178;-66
2021/10/09 07:16:07;;;;;;;33.47;20.60;;;;;;;10.33;70.17;97551.19;5072290;28;20454;-66
2021/10/09 07:18:32;;;;;;;38.40;21.93;;;;;;;10.74;68.71;97557.00;5066452;28;20607;-66
2021/10/09 07:20:58;;;;;;;31.10;20.40;;;;;;;10.52;69.30;97564.25;5051176;28;20204;-66
2021/10/09 07:23:23;;;;;;;27.97;20.47;;;;;;;10.85;68.64;97558.59;5066086;28;20175;-65
2021/10/09 07:25:49;;;;;;;38.80;21.43;;;;;;;10.53;69.04;97560.66;5072592;28;20178;-66
2021/10/09 07:28:15;;;;;;;29.10;19.00;;;;;;;10.84;68.52;97563.00;5069171;28;20175;-66
2021/10/09 07:30:40;;;;;;;34.73;21.03;;;;;;;10.98;68.46;97563.50;5067841;28;20194;-65
2021/10/09 07:33:06;;;;;;;29.53;21.23;;;;;;;11.04;67.79;97565.56;5072342;28;20186;-66
2021/10/09 07:35:31;;;;;;;28.10;20.37;;;;;;;10.60;68.79;97564.34;5065038;28;20178;-65
2021/10/09 07:37:57;;;;;;;28.23;19.50;;;;;;;10.51;70.50;97562.59;5072089;28;20206;-67
2021/10/09 07:40:22;;;;;;;27.33;20.50;;;;;;;11.17;69.09;97558.16;5067710;28;20199;-69
2021/10/09 07:42:48;;;;;;;31.87;19.07;;;;;;;11.14;68.65;97558.44;5068744;28;20175;-66
2021/10/09 07:45:14;;;;;;;26.63;19.50;;;;;;;11.44;67.41;97561.72;5056284;28;20192;-67
2021/10/09 07:47:40;;;;;;;29.07;20.13;;;;;;;11.43;67.46;97557.44;5072131;28;20597;-66
2021/10/09 07:50:06;;;;;;;35.07;21.63;;;;;;;11.83;66.49;97564.03;5070423;28;20255;-72
2021/10/09 07:52:31;;;;;;;31.63;20.20;;;;;;;12.19;65.75;97560.53;5060497;28;20420;-66
2021/10/09 07:54:57;;;;;;;36.70;22.33;;;;;;;12.04;66.50;97570.78;5063988;28;20545;-66
2021/10/09 07:57:22;;;;;;;37.77;24.10;;;;;;;12.55;64.79;97572.75;5068112;28;20741;-66
2021/10/09 07:59:48;;;;;;;32.53;19.80;;;;;;;12.56;64.15;97579.69;5069065;28;20264;-67
2021/10/09 08:02:14;;;;;;;26.60;19.30;;;;;;;12.70;64.13;97573.84;5056892;28;20181;-67
2021/10/09 08:04:39;;;;;;;26.60;20.23;;;;;;;12.83;64.06;97575.22;5072501;28;20235;-66
2021/10/09 08:07:05;;;;;;;33.73;20.77;;;;;;;12.88;62.97;97573.75;5071366;28;20213;-66
2021/10/09 08:09:34;;;;;;;70.77;21.57;;;;;;;13.00;62.88;97565.56;5071590;28;20206;-65
2021/10/09 08:11:59;;;;;;;27.40;19.30;;;;;;;13.07;62.70;97563.94;5070177;28;20272;-65
2021/10/09 08:14:25;;;;;;;37.30;25.10;;;;;;;13.30;62.15;97560.72;5065140;28;20511;-66
2021/10/09 08:16:51;;;;;;;30.07;18.60;;;;;;;13.52;61.57;97561.94;5065780;28;20225;-65
2021/10/09 08:19:17;;;;;;;27.80;17.83;;;;;;;13.57;61.25;97567.56;5071529;28;20577;-66
2021/10/09 08:21:44;;;;;;;24.13;17.10;;;;;;;13.78;61.13;97568.88;5053176;28;20500;-67
2021/10/09 08:35:33;;;;;;;26.13;19.13;;;;;;;13.47;61.11;97580.06;5024555;28;20428;-66
2021/10/09 08:40:44;;;;;;;107.73;22.03;;;;;;;13.56;60.91;97579.06;5022976;28;20496;-66
2021/10/09 08:43:10;;;;;;;38.80;19.10;;;;;;;13.91;60.29;97578.97;5021642;28;20527;-66
2021/10/09 08:45:36;;;;;;;28.57;18.10;;;;;;;14.17;59.75;97570.88;5033493;28;20721;-66
2021/10/09 08:48:01;;;;;;;27.80;17.70;;;;;;;14.28;59.19;97586.34;5036732;28;20272;-66
2021/10/09 08:50:27;;;;;;;26.77;18.63;;;;;;;14.10;59.84;97577.81;5020338;28;20209;-69
2021/10/09 08:53:10;;;;;;;30.03;18.97;;;;;;;14.56;58.18;97575.41;5033529;28;20203;-66
2021/10/09 08:55:38;;;;;;;27.73;18.83;;;;;;;14.61;57.55;97574.09;5035086;28;20266;-65
2021/10/09 08:58:13;;;;;;;25.60;17.80;;;;;;;14.01;59.04;97584.88;5029630;28;20973;-65
2021/10/09 09:01:11;;;;;;;30.97;19.13;;;;;;;14.32;58.22;97576.28;5029857;28;20452;-66
2021/10/09 09:04:09;;;;;;;27.13;18.37;;;;;;;14.20;58.24;97572.34;5059804;28;20456;-65
2021/10/09 09:39:53;;;;;;;24.60;16.60;;;;;;;15.08;55.83;97572.47;5070369;28;20533;-65
2021/10/09 09:42:25;;;;;;;32.10;18.73;;;;;;;14.97;55.90;97571.03;5069862;28;20526;-67
2021/10/09 09:44:56;;;;;;;23.03;16.10;;;;;;;15.08;55.95;97575.94;5071022;28;20190;-66
2021/10/09 09:47:39;;;;;;;24.80;16.70;;;;;;;15.11;55.37;97569.47;5073532;28;20474;-67
2021/10/09 09:50:08;;;;;;;28.50;17.43;;;;;;;14.37;56.73;97570.50;5067032;28;20448;-66
2021/10/09 09:52:38;;;;;;;23.40;16.30;;;;;;;14.62;56.87;97578.38;5068440;28;20447;-67
2021/10/09 09:55:06;;;;;;;21.57;16.70;;;;;;;15.22;55.62;97573.56;5074475;28;20941;-66
2021/10/09 09:57:34;;;;;;;27.07;17.87;;;;;;;15.00;56.35;97570.66;5074343;28;20452;-67
2021/10/09 10:00:03;;;;;;;29.40;18.00;;;;;;;15.05;55.97;97581.56;5074263;28;20790;-66
2021/10/09 10:02:30;;;;;;;26.50;17.20;;;;;;;14.56;57.42;97578.06;5074754;28;20486;-66
2021/10/09 10:05:00;;;;;;;22.60;16.80;;;;;;;14.43;58.41;97580.38;5074812;28;20459;-66
2021/10/09 10:07:26;;;;;;;29.13;18.77;;;;;;;14.56;58.07;97582.50;5068922;28;20448;-67
2021/10/09 10:09:52;;;;;;;27.77;17.90;;;;;;;14.12;58.52;97575.78;5071125;28;20498;-66
2021/10/09 10:12:18;;;;;;;28.40;17.70;;;;;;;15.08;55.87;97578.56;5074285;28;20420;-66
2021/10/09 10:14:46;;;;;;;24.37;17.40;;;;;;;14.94;56.28;97574.81;5074196;28;20716;-66
2021/10/09 10:17:11;;;;;;;25.43;17.17;;;;;;;14.70;56.11;97584.47;5067677;28;20456;-67
2021/10/09 10:19:49;;;;;;;22.00;16.20;;;;;;;15.24;55.58;97574.22;5074141;28;20785;-67
2021/10/09 10:22:30;;;;;;;22.20;16.80;;;;;;;15.60;54.00;97577.13;5058126;28;20178;-66
2021/10/09 10:24:56;;;;;;;22.87;16.27;;;;;;;15.21;54.97;97575.38;5073717;28;20425;-66
2021/10/09 10:27:35;;;;;;;23.10;16.50;;;;;;;15.33;54.60;97583.72;5074540;28;20807;-66
2021/10/09 10:30:13;;;;;;;25.93;16.70;;;;;;;15.78;53.29;97579.47;5073730;28;20209;-66
2021/10/09 10:32:39;;;;;;;27.00;16.47;;;;;;;16.04;52.31;97575.66;5073933;28;20521;-66
2021/10/09 10:35:29;;;;;;;23.80;16.07;;;;;;;15.81;52.80;97580.97;5055413;28;20524;-66
2021/10/09 10:37:59;;;;;;;35.30;17.00;;;;;;;16.37;51.61;97585.13;5073465;28;20653;-66
2021/10/09 10:40:50;;;;;;;36.60;15.70;;;;;;;16.73;50.69;97579.97;5048731;28;20474;-65
2021/10/09 10:46:33;;;;;;;23.30;15.60;;;;;;;16.55;49.97;97577.69;5074294;28;20441;-65
2021/10/09 10:51:33;;;;;;;21.37;15.30;;;;;;;16.39;51.13;97583.94;5061356;28;20421;-66
2021/10/09 10:56:37;;;;;;;21.00;14.10;;;;;;;17.23;48.71;97575.94;5073927;28;20421;-67
2021/10/09 10:59:31;;;;;;;18.03;13.80;;;;;;;17.04;48.87;97576.31;5064646;28;20465;-65
2021/10/09 11:02:13;;;;;;;24.73;14.33;;;;;;;17.41;47.22;97576.34;5072893;28;20453;-67
2021/10/09 11:04:39;;;;;;;19.67;13.77;;;;;;;16.99;48.10;97576.06;5073563;28;20462;-67
2021/10/09 11:07:05;;;;;;;18.27;13.17;;;;;;;17.07;47.58;97574.31;5065134;28;20862;-66
2021/10/09 11:09:32;;;;;;;18.17;14.50;;;;;;;17.29;47.06;97575.19;5072555;28;20496;-68
2021/10/09 11:11:58;;;;;;;19.53;11.93;;;;;;;17.52;46.53;97568.94;5072666;28;20511;-67
2021/10/09 11:14:27;;;;;;;20.13;11.80;;;;;;;17.73;45.82;97568.13;5073630;28;20977;-67
2021/10/09 11:17:04;;;;;;;20.60;13.40;;;;;;;17.71;45.72;97564.84;5068160;28;20245;-67
2021/10/09 11:19:49;;;;;;;20.27;12.70;;;;;;;18.21;44.63;97565.72;5073633;28;20911;-64
2021/10/09 11:22:17;;;;;;;22.77;13.87;;;;;;;18.06;44.52;97564.97;5055028;28;20762;-68
2021/10/09 11:24:44;;;;;;;17.80;11.97;;;;;;;18.00;44.51;97563.09;5079560;28;20437;-66
2021/10/09 11:27:10;;;;;;;21.13;11.97;;;;;;;18.27;43.69;97561.47;5082413;28;20514;-66
2021/10/09 11:29:36;;;;;;;22.17;12.50;;;;;;;18.19;43.80;97559.78;5072708;28;20513;-66
2021/10/09 11:32:06;;;;;;;18.17;11.63;;;;;;;17.33;45.84;97568.50;5085817;28;20445;-66
2021/10/09 11:34:47;;;;;;;18.47;12.50;;;;;;;17.61;44.74;97565.97;5076936;28;20171;-66
2021/10/09 11:37:14;;;;;;;20.97;14.53;;;;;;;17.58;45.15;97566.34;5075759;28;20528;-66
2021/10/09 11:39:51;;;;;;;13.50;11.30;;;;;;;18.31;43.22;97561.88;5073280;28;20445;-66
2021/10/09 11:42:22;;;;;;;17.60;11.23;;;;;;;18.65;43.56;97561.09;5058118;28;20425;-65
2021/10/09 11:45:03;;;;;;;16.10;10.60;;;;;;;19.05;42.09;97557.84;5071637;28;20429;-67
2021/10/09 11:47:38;;;;;;;14.63;10.60;;;;;;;18.88;42.45;97559.97;5059800;28;20465;-66
2021/10/09 11:55:35;;;;;;;17.00;10.03;;;;;;;19.53;40.80;97556.19;5065275;28;20475;-67
2021/10/09 11:58:03;;;;;;;17.03;9.67;;;;;;;19.91;39.16;97553.78;5067843;28;20571;-65
2021/10/09 12:00:29;;;;;;;12.50;9.57;;;;;;;19.83;40.37;97551.31;5071726;28;20572;-65
2021/10/09 12:02:59;;;;;;;13.37;10.57;;;;;;;20.54;38.03;97557.03;5071137;28;20552;-66
2021/10/09 12:05:34;;;;;;;14.33;10.83;;;;;;;20.18;38.43;97552.97;5070344;28;20185;-66
2021/10/09 12:08:25;;;;;;;14.27;10.10;;;;;;;20.39;38.36;97549.25;5071248;28;20404;-67
2021/10/09 12:11:24;;;;;;;16.80;11.87;;;;;;;20.90;37.51;97558.41;5053389;28;20475;-66
2021/10/09 12:14:01;;;;;;;12.83;10.53;;;;;;;20.62;37.94;97543.50;5068316;28;20787;-65
2021/10/09 12:16:40;;;;;;;17.33;11.43;;;;;;;20.40;39.05;97540.25;5067994;28;20460;-66
2021/10/09 12:19:07;;;;;;;13.20;10.13;;;;;;;20.46;38.95;97539.44;5059952;28;20461;-66
2021/10/09 12:21:36;;;;;;;15.20;11.53;;;;;;;19.53;40.26;97537.56;5058706;28;20508;-64
2021/10/09 12:24:17;;;;;;;17.53;10.40;;;;;;;19.03;40.97;97542.13;5071478;28;20471;-66
2021/10/09 12:26:57;;;;;;;21.33;10.53;;;;;;;19.51;40.36;97536.94;5071570;28;20420;-65
2021/10/09 12:29:22;;;;;;;14.00;10.70;;;;;;;19.40;40.30;97535.69;5057722;28;20981;-67
2021/10/09 12:31:48;;;;;;;13.20;10.03;;;;;;;19.57;39.92;97536.13;5069961;28;20432;-67
2021/10/09 12:34:34;;;;;;;16.93;10.93;;;;;;;20.24;39.27;97528.22;5062788;28;20182;-65
2021/10/09 12:37:09;;;;;;;15.40;10.67;;;;;;;20.62;39.02;97532.00;5065577;28;20195;-65
2021/10/09 12:39:35;;;;;;;17.90;10.20;;;;;;;20.53;38.57;97534.09;5065740;28;20950;-66
2021/10/09 12:42:00;;;;;;;14.53;10.50;;;;;;;20.82;37.84;97530.16;5070912;28;20425;-70
2021/10/09 12:44:26;;;;;;;17.50;11.90;;;;;;;20.33;38.67;97526.97;5071262;28;20179;-65
2021/10/09 12:46:52;;;;;;;14.57;11.00;;;;;;;20.91;38.15;97532.56;5071278;28;20365;-65
2021/10/09 12:49:18;;;;;;;15.90;11.00;;;;;;;20.71;37.83;97526.25;5062774;28;20190;-67
2021/10/09 12:51:44;;;;;;;19.40;12.03;;;;;;;20.65;38.09;97527.09;5058855;28;20231;-67
2021/10/09 12:54:10;;;;;;;21.03;10.33;;;;;;;21.14;37.54;97518.75;5071213;28;20424;-65
2021/10/09 12:56:36;;;;;;;16.07;11.57;;;;;;;20.74;38.54;97519.69;5071014;28;20454;-65
2021/10/09 12:59:02;;;;;;;18.60;10.70;;;;;;;20.72;38.34;97521.75;5070805;28;20305;-66
2021/10/09 13:01:29;;;;;;;15.03;11.47;;;;;;;20.41;39.73;97518.75;5070652;28;20508;-67
2021/10/09 13:03:55;;;;;;;16.50;11.40;;;;;;;21.17;37.86;97511.16;5070857;28;20440;-65
2021/10/09 13:06:20;;;;;;;20.77;11.80;;;;;;;20.95;37.79;97510.63;5070733;28;20423;-69
2021/10/09 13:08:46;;;;;;;12.53;9.40;;;;;;;21.73;35.95;97505.28;5071161;28;20182;-66
2021/10/09 13:11:11;;;;;;;13.53;10.43;;;;;;;21.32;36.83;97513.50;5070722;28;20546;-67
2021/10/09 13:13:38;;;;;;;20.97;11.20;;;;;;;20.95;38.02;97510.63;5063224;28;20552;-66
2021/10/09 13:16:05;;;;;;;14.63;10.30;;;;;;;21.82;36.27;97511.97;5074859;28;20178;-66
2021/10/09 13:18:31;;;;;;;17.30;10.80;;;;;;;21.52;36.50;97504.59;5068988;28;20463;-64
2021/10/09 13:20:57;;;;;;;14.40;10.50;;;;;;;22.05;35.91;97502.59;5061940;28;20782;-65
2021/10/09 13:23:23;;;;;;;16.80;10.57;;;;;;;21.79;35.86;97499.09;5066505;28;20660;-67
2021/10/09 13:25:48;;;;;;;13.57;10.87;;;;;;;22.42;34.60;97500.00;5073278;28;20170;-67
2021/10/09 13:28:14;;;;;;;16.33;9.87;;;;;;;22.55;34.72;97501.69;5074665;28;20185;-66
2021/10/09 13:30:40;;;;;;;12.40;9.40;;;;;;;22.55;33.66;97504.38;5066284;28;20574;-66
2021/10/09 13:33:05;;;;;;;11.43;9.70;;;;;;;22.40;34.33;97489.50;5074369;28;20524;-67
2021/10/09 13:35:32;;;;;;;13.03;10.50;;;;;;;22.65;33.90;97506.53;5061309;28;20211;-64
2021/10/09 13:37:59;;;;;;;14.00;9.93;;;;;;;22.14;34.80;97500.44;5071311;28;20556;-67
2021/10/09 13:40:25;;;;;;;13.67;10.03;;;;;;;23.01;33.58;97502.97;5073455;28;20470;-68